sensor_id;sensor_type;location;lat;lon;timestamp;temperature;humidity
38788;DHT22;24536;45.488;12.238;2023-10-09T00:01:04;22.30;92.80
38788;DHT22;24536;45.488;12.238;2023-10-09T00:03:43;22.20;92.80
38788;DHT22;24536;45.488;12.238;2023-10-09T00:06:10;22.20;92.90
38788;DHT22;24536;45.488;12.238;2023-10-09T00:08:39;22.20;92.90
38788;DHT22;24536;45.488;12.238;2023-10-09T00:11:10;22.20;92.90
38788;DHT22;24536;45.488;12.238;2023-10-09T00:13:41;22.20;93.00
38788;DHT22;24536;45.488;12.238;2023-10-09T00:16:18;22.10;93.00
38788;DHT22;24536;45.488;12.238;2023-10-09T00:19:09;22.10;93.00
38788;DHT22;24536;45.488;12.238;2023-10-09T00:21:44;22.10;93.10
38788;DHT22;24536;45.488;12.238;2023-10-09T00:24:11;22.10;93.10
38788;DHT22;24536;45.488;12.238;2023-10-09T00:26:40;22.00;93.10
38788;DHT22;24536;45.488;12.238;2023-10-09T00:29:12;22.00;93.10
38788;DHT22;24536;45.488;12.238;2023-10-09T00:31:43;22.10;93.10
38788;DHT22;24536;45.488;12.238;2023-10-09T00:34:16;22.10;93.10
38788;DHT22;24536;45.488;12.238;2023-10-09T00:36:45;22.10;93.10
38788;DHT22;24536;45.488;12.238;2023-10-09T00:39:18;22.10;93.10
38788;DHT22;24536;45.488;12.238;2023-10-09T00:42:08;22.10;93.10
38788;DHT22;24536;45.488;12.238;2023-10-09T00:44:37;22.20;93.10
38788;DHT22;24536;45.488;12.238;2023-10-09T00:47:12;22.10;93.00
38788;DHT22;24536;45.488;12.238;2023-10-09T00:49:50;22.20;93.00
38788;DHT22;24536;45.488;12.238;2023-10-09T00:52:20;22.20;93.00
38788;DHT22;24536;45.488;12.238;2023-10-09T00:55:02;22.20;93.00
38788;DHT22;24536;45.488;12.238;2023-10-09T00:57:46;22.20;92.90
38788;DHT22;24536;45.488;12.238;2023-10-09T01:00:26;22.20;92.90
38788;DHT22;24536;45.488;12.238;2023-10-09T01:03:15;22.20;92.90
38788;DHT22;24536;45.488;12.238;2023-10-09T01:05:56;22.10;92.90
38788;DHT22;24536;45.488;12.238;2023-10-09T01:08:27;22.10;92.90
38788;DHT22;24536;45.488;12.238;2023-10-09T01:11:13;22.00;93.00
38788;DHT22;24536;45.488;12.238;2023-10-09T01:13:48;22.00;93.00
38788;DHT22;24536;45.488;12.238;2023-10-09T01:16:14;22.00;93.00
38788;DHT22;24536;45.488;12.238;2023-10-09T01:18:47;22.00;93.10
38788;DHT22;24536;45.488;12.238;2023-10-09T01:21:17;22.00;93.00
38788;DHT22;24536;45.488;12.238;2023-10-09T01:23:44;22.10;93.10
38788;DHT22;24536;45.488;12.238;2023-10-09T01:26:55;22.10;93.00
38788;DHT22;24536;45.488;12.238;2023-10-09T01:29:23;22.10;93.00
38788;DHT22;24536;45.488;12.238;2023-10-09T01:31:55;22.00;93.00
38788;DHT22;24536;45.488;12.238;2023-10-09T01:34:25;22.00;93.00
38788;DHT22;24536;45.488;12.238;2023-10-09T01:37:12;22.00;92.90
38788;DHT22;24536;45.488;12.238;2023-10-09T01:39:53;22.10;92.90
38788;DHT22;24536;45.488;12.238;2023-10-09T01:42:41;22.00;93.00
38788;DHT22;24536;45.488;12.238;2023-10-09T01:45:14;22.00;93.00
38788;DHT22;24536;45.488;12.238;2023-10-09T01:47:45;22.00;93.00
38788;DHT22;24536;45.488;12.238;2023-10-09T01:50:17;22.00;93.00
38788;DHT22;24536;45.488;12.238;2023-10-09T01:52:48;22.00;92.90
38788;DHT22;24536;45.488;12.238;2023-10-09T01:55:13;22.00;92.90
38788;DHT22;24536;45.488;12.238;2023-10-09T01:57:59;22.00;92.90
38788;DHT22;24536;45.488;12.238;2023-10-09T02:00:34;22.00;93.20
38788;DHT22;24536;45.488;12.238;2023-10-09T02:03:07;22.00;93.00
38788;DHT22;24536;45.488;12.238;2023-10-09T02:05:38;21.90;93.00
38788;DHT22;24536;45.488;12.238;2023-10-09T02:08:05;21.90;93.00
38788;DHT22;24536;45.488;12.238;2023-10-09T02:10:38;21.90;93.00
38788;DHT22;24536;45.488;12.238;2023-10-09T02:13:06;22.00;93.10
38788;DHT22;24536;45.488;12.238;2023-10-09T02:15:34;22.00;93.10
38788;DHT22;24536;45.488;12.238;2023-10-09T02:18:10;22.00;93.10
38788;DHT22;24536;45.488;12.238;2023-10-09T02:23:38;22.00;93.10
38788;DHT22;24536;45.488;12.238;2023-10-09T02:26:05;22.10;93.10
38788;DHT22;24536;45.488;12.238;2023-10-09T02:28:32;22.00;93.10
38788;DHT22;24536;45.488;12.238;2023-10-09T02:30:59;22.00;93.30
38788;DHT22;24536;45.488;12.238;2023-10-09T02:33:36;22.10;93.10
38788;DHT22;24536;45.488;12.238;2023-10-09T02:36:05;22.10;93.00
38788;DHT22;24536;45.488;12.238;2023-10-09T02:38:32;22.00;93.00
38788;DHT22;24536;45.488;12.238;2023-10-09T02:41:01;22.00;93.10
38788;DHT22;24536;45.488;12.238;2023-10-09T02:43:33;21.90;93.10
38788;DHT22;24536;45.488;12.238;2023-10-09T02:46:17;21.90;93.20
38788;DHT22;24536;45.488;12.238;2023-10-09T02:48:47;21.90;93.20
38788;DHT22;24536;45.488;12.238;2023-10-09T02:51:19;21.90;93.20
38788;DHT22;24536;45.488;12.238;2023-10-09T02:54:00;21.90;93.30
38788;DHT22;24536;45.488;12.238;2023-10-09T02:56:37;21.90;93.20
38788;DHT22;24536;45.488;12.238;2023-10-09T02:59:09;21.90;93.10
38788;DHT22;24536;45.488;12.238;2023-10-09T03:01:36;21.90;93.10
38788;DHT22;24536;45.488;12.238;2023-10-09T03:04:03;21.90;93.10
38788;DHT22;24536;45.488;12.238;2023-10-09T03:06:31;21.90;93.00
38788;DHT22;24536;45.488;12.238;2023-10-09T03:08:58;21.90;92.90
38788;DHT22;24536;45.488;12.238;2023-10-09T03:11:24;22.00;92.90
38788;DHT22;24536;45.488;12.238;2023-10-09T03:13:52;21.90;92.90
38788;DHT22;24536;45.488;12.238;2023-10-09T03:16:18;21.90;92.90
38788;DHT22;24536;45.488;12.238;2023-10-09T03:18:49;21.90;92.90
38788;DHT22;24536;45.488;12.238;2023-10-09T03:21:15;21.90;92.90
38788;DHT22;24536;45.488;12.238;2023-10-09T03:23:45;21.90;92.90
38788;DHT22;24536;45.488;12.238;2023-10-09T03:26:16;21.90;92.90
38788;DHT22;24536;45.488;12.238;2023-10-09T03:28:44;21.90;92.90
38788;DHT22;24536;45.488;12.238;2023-10-09T03:31:11;21.80;92.90
38788;DHT22;24536;45.488;12.238;2023-10-09T03:33:36;21.80;92.80
38788;DHT22;24536;45.488;12.238;2023-10-09T03:36:02;21.90;92.90
38788;DHT22;24536;45.488;12.238;2023-10-09T03:38:33;21.80;92.80
38788;DHT22;24536;45.488;12.238;2023-10-09T03:41:06;21.80;92.90
38788;DHT22;24536;45.488;12.238;2023-10-09T03:43:36;21.80;92.90
38788;DHT22;24536;45.488;12.238;2023-10-09T03:46:10;21.80;92.90
38788;DHT22;24536;45.488;12.238;2023-10-09T03:48:53;21.80;92.90
38788;DHT22;24536;45.488;12.238;2023-10-09T03:51:22;21.80;92.90
38788;DHT22;24536;45.488;12.238;2023-10-09T03:53:48;21.80;92.90
38788;DHT22;24536;45.488;12.238;2023-10-09T03:56:15;21.70;92.90
38788;DHT22;24536;45.488;12.238;2023-10-09T03:58:45;21.70;93.00
38788;DHT22;24536;45.488;12.238;2023-10-09T04:01:13;21.60;93.00
38788;DHT22;24536;45.488;12.238;2023-10-09T04:03:54;21.60;93.10
38788;DHT22;24536;45.488;12.238;2023-10-09T04:06:30;21.60;93.00
38788;DHT22;24536;45.488;12.238;2023-10-09T04:08:57;21.60;93.10
38788;DHT22;24536;45.488;12.238;2023-10-09T04:11:24;21.50;93.10
38788;DHT22;24536;45.488;12.238;2023-10-09T04:13:51;21.50;93.20
38788;DHT22;24536;45.488;12.238;2023-10-09T04:16:21;21.60;93.20
38788;DHT22;24536;45.488;12.238;2023-10-09T04:18:59;21.60;93.20
38788;DHT22;24536;45.488;12.238;2023-10-09T04:21:26;21.60;93.20
38788;DHT22;24536;45.488;12.238;2023-10-09T04:24:05;21.50;93.20
38788;DHT22;24536;45.488;12.238;2023-10-09T04:26:38;21.50;93.20
38788;DHT22;24536;45.488;12.238;2023-10-09T04:29:10;21.50;93.20
38788;DHT22;24536;45.488;12.238;2023-10-09T04:31:36;21.50;93.30
38788;DHT22;24536;45.488;12.238;2023-10-09T04:34:06;21.50;93.30
38788;DHT22;24536;45.488;12.238;2023-10-09T04:36:50;21.50;93.30
38788;DHT22;24536;45.488;12.238;2023-10-09T04:39:23;21.40;93.20
38788;DHT22;24536;45.488;12.238;2023-10-09T04:41:55;21.40;93.20
38788;DHT22;24536;45.488;12.238;2023-10-09T04:44:43;21.40;93.30
38788;DHT22;24536;45.488;12.238;2023-10-09T04:47:35;21.40;93.30
38788;DHT22;24536;45.488;12.238;2023-10-09T04:50:11;21.40;93.30
38788;DHT22;24536;45.488;12.238;2023-10-09T04:52:40;21.40;93.40
38788;DHT22;24536;45.488;12.238;2023-10-09T04:55:07;21.40;93.40
38788;DHT22;24536;45.488;12.238;2023-10-09T04:57:37;21.40;93.40
38788;DHT22;24536;45.488;12.238;2023-10-09T05:00:15;21.40;93.40
38788;DHT22;24536;45.488;12.238;2023-10-09T05:03:01;21.40;93.40
38788;DHT22;24536;45.488;12.238;2023-10-09T05:05:50;21.40;93.50
38788;DHT22;24536;45.488;12.238;2023-10-09T05:08:25;21.40;93.50
38788;DHT22;24536;45.488;12.238;2023-10-09T05:10:57;21.40;93.60
38788;DHT22;24536;45.488;12.238;2023-10-09T05:13:23;21.40;93.60
38788;DHT22;24536;45.488;12.238;2023-10-09T05:16:14;21.40;93.60
38788;DHT22;24536;45.488;12.238;2023-10-09T05:18:55;21.40;93.70
38788;DHT22;24536;45.488;12.238;2023-10-09T05:21:54;21.40;93.80
38788;DHT22;24536;45.488;12.238;2023-10-09T05:24:24;21.40;93.80
38788;DHT22;24536;45.488;12.238;2023-10-09T05:26:54;21.40;93.80
38788;DHT22;24536;45.488;12.238;2023-10-09T05:29:39;21.40;93.90
38788;DHT22;24536;45.488;12.238;2023-10-09T05:32:25;21.40;93.90
38788;DHT22;24536;45.488;12.238;2023-10-09T05:34:55;21.40;93.90
38788;DHT22;24536;45.488;12.238;2023-10-09T05:37:28;21.40;93.90
38788;DHT22;24536;45.488;12.238;2023-10-09T05:40:09;21.40;93.90
38788;DHT22;24536;45.488;12.238;2023-10-09T05:42:41;21.40;93.80
38788;DHT22;24536;45.488;12.238;2023-10-09T05:45:08;21.50;93.90
38788;DHT22;24536;45.488;12.238;2023-10-09T05:47:53;21.40;93.80
38788;DHT22;24536;45.488;12.238;2023-10-09T05:50:24;21.40;93.80
38788;DHT22;24536;45.488;12.238;2023-10-09T05:52:50;21.40;93.80
38788;DHT22;24536;45.488;12.238;2023-10-09T05:55:17;21.40;93.80
38788;DHT22;24536;45.488;12.238;2023-10-09T05:57:52;21.40;93.70
38788;DHT22;24536;45.488;12.238;2023-10-09T06:00:21;21.40;93.60
38788;DHT22;24536;45.488;12.238;2023-10-09T06:03:06;21.40;93.60
38788;DHT22;24536;45.488;12.238;2023-10-09T06:05:44;21.40;93.60
38788;DHT22;24536;45.488;12.238;2023-10-09T06:08:22;21.40;93.60
38788;DHT22;24536;45.488;12.238;2023-10-09T06:11:14;21.40;93.50
38788;DHT22;24536;45.488;12.238;2023-10-09T06:14:16;21.40;93.50
38788;DHT22;24536;45.488;12.238;2023-10-09T06:16:51;21.40;93.50
38788;DHT22;24536;45.488;12.238;2023-10-09T06:19:24;21.40;93.50
38788;DHT22;24536;45.488;12.238;2023-10-09T06:21:59;21.40;93.50
38788;DHT22;24536;45.488;12.238;2023-10-09T06:24:38;21.40;93.50
38788;DHT22;24536;45.488;12.238;2023-10-09T06:27:20;21.40;93.50
38788;DHT22;24536;45.488;12.238;2023-10-09T06:29:55;21.40;93.50
38788;DHT22;24536;45.488;12.238;2023-10-09T06:32:42;21.40;93.50
38788;DHT22;24536;45.488;12.238;2023-10-09T06:35:20;21.40;93.40
38788;DHT22;24536;45.488;12.238;2023-10-09T06:37:57;21.40;93.40
38788;DHT22;24536;45.488;12.238;2023-10-09T06:40:32;21.40;93.30
38788;DHT22;24536;45.488;12.238;2023-10-09T06:43:30;21.40;93.40
38788;DHT22;24536;45.488;12.238;2023-10-09T06:45:58;21.40;93.30
38788;DHT22;24536;45.488;12.238;2023-10-09T06:48:24;21.50;93.10
38788;DHT22;24536;45.488;12.238;2023-10-09T06:51:03;21.50;93.00
38788;DHT22;24536;45.488;12.238;2023-10-09T06:53:33;21.50;92.90
38788;DHT22;24536;45.488;12.238;2023-10-09T06:56:18;21.60;92.70
38788;DHT22;24536;45.488;12.238;2023-10-09T06:58:52;21.50;92.50
38788;DHT22;24536;45.488;12.238;2023-10-09T07:01:21;21.60;92.50
38788;DHT22;24536;45.488;12.238;2023-10-09T07:03:53;21.70;92.40
38788;DHT22;24536;45.488;12.238;2023-10-09T07:06:20;21.60;92.20
38788;DHT22;24536;45.488;12.238;2023-10-09T07:08:53;21.70;92.20
38788;DHT22;24536;45.488;12.238;2023-10-09T07:11:38;21.70;92.20
38788;DHT22;24536;45.488;12.238;2023-10-09T07:14:11;21.70;92.10
38788;DHT22;24536;45.488;12.238;2023-10-09T07:17:13;21.70;92.10
38788;DHT22;24536;45.488;12.238;2023-10-09T07:19:48;21.80;92.00
38788;DHT22;24536;45.488;12.238;2023-10-09T07:22:14;21.80;91.80
38788;DHT22;24536;45.488;12.238;2023-10-09T07:24:50;21.90;91.80
38788;DHT22;24536;45.488;12.238;2023-10-09T07:27:30;21.90;91.60
38788;DHT22;24536;45.488;12.238;2023-10-09T07:30:21;21.90;91.50
38788;DHT22;24536;45.488;12.238;2023-10-09T07:32:59;21.90;91.40
38788;DHT22;24536;45.488;12.238;2023-10-09T07:35:47;22.00;91.30
38788;DHT22;24536;45.488;12.238;2023-10-09T07:38:17;22.10;91.20
38788;DHT22;24536;45.488;12.238;2023-10-09T07:40:51;22.10;91.00
38788;DHT22;24536;45.488;12.238;2023-10-09T07:43:36;22.20;91.00
38788;DHT22;24536;45.488;12.238;2023-10-09T07:46:09;22.20;90.80
38788;DHT22;24536;45.488;12.238;2023-10-09T07:48:57;22.30;90.70
38788;DHT22;24536;45.488;12.238;2023-10-09T07:51:23;22.40;90.70
38788;DHT22;24536;45.488;12.238;2023-10-09T07:53:57;22.40;90.40
38788;DHT22;24536;45.488;12.238;2023-10-09T07:56:36;22.50;90.40
38788;DHT22;24536;45.488;12.238;2023-10-09T07:59:07;22.50;90.50
38788;DHT22;24536;45.488;12.238;2023-10-09T08:01:56;22.60;90.50
38788;DHT22;24536;45.488;12.238;2023-10-09T08:04:27;22.60;90.40
38788;DHT22;24536;45.488;12.238;2023-10-09T08:07:07;22.70;90.30
38788;DHT22;24536;45.488;12.238;2023-10-09T08:09:47;22.80;90.10
38788;DHT22;24536;45.488;12.238;2023-10-09T08:12:36;22.90;90.00
38788;DHT22;24536;45.488;12.238;2023-10-09T08:15:24;23.00;90.10
38788;DHT22;24536;45.488;12.238;2023-10-09T08:18:16;23.10;90.20
38788;DHT22;24536;45.488;12.238;2023-10-09T08:20:54;23.20;90.10
38788;DHT22;24536;45.488;12.238;2023-10-09T08:23:23;23.40;90.20
38788;DHT22;24536;45.488;12.238;2023-10-09T08:26:09;23.50;88.90
38788;DHT22;24536;45.488;12.238;2023-10-09T08:28:44;23.60;89.20
38788;DHT22;24536;45.488;12.238;2023-10-09T08:31:17;23.70;88.90
38788;DHT22;24536;45.488;12.238;2023-10-09T08:34:06;23.80;89.00
38788;DHT22;24536;45.488;12.238;2023-10-09T08:36:35;24.00;88.10
38788;DHT22;24536;45.488;12.238;2023-10-09T08:39:03;24.10;87.90
38788;DHT22;24536;45.488;12.238;2023-10-09T08:41:51;24.20;86.50
38788;DHT22;24536;45.488;12.238;2023-10-09T08:44:19;24.30;87.00
38788;DHT22;24536;45.488;12.238;2023-10-09T08:46:49;24.40;87.20
38788;DHT22;24536;45.488;12.238;2023-10-09T08:49:16;24.50;87.20
38788;DHT22;24536;45.488;12.238;2023-10-09T08:51:42;24.60;86.90
38788;DHT22;24536;45.488;12.238;2023-10-09T08:54:08;24.70;86.80
38788;DHT22;24536;45.488;12.238;2023-10-09T08:56:37;24.80;86.70
38788;DHT22;24536;45.488;12.238;2023-10-09T08:59:05;24.90;86.00
38788;DHT22;24536;45.488;12.238;2023-10-09T09:01:31;25.00;85.50
38788;DHT22;24536;45.488;12.238;2023-10-09T09:03:59;25.00;85.90
38788;DHT22;24536;45.488;12.238;2023-10-09T09:06:36;25.10;85.40
38788;DHT22;24536;45.488;12.238;2023-10-09T09:09:12;25.30;85.20
38788;DHT22;24536;45.488;12.238;2023-10-09T09:11:42;25.30;85.00
38788;DHT22;24536;45.488;12.238;2023-10-09T09:14:18;25.40;85.20
38788;DHT22;24536;45.488;12.238;2023-10-09T09:16:47;25.60;85.10
38788;DHT22;24536;45.488;12.238;2023-10-09T09:19:17;25.70;85.10
38788;DHT22;24536;45.488;12.238;2023-10-09T09:21:57;25.80;85.00
38788;DHT22;24536;45.488;12.238;2023-10-09T09:24:37;25.90;84.80
38788;DHT22;24536;45.488;12.238;2023-10-09T09:27:04;26.10;84.80
38788;DHT22;24536;45.488;12.238;2023-10-09T09:29:40;26.20;84.60
38788;DHT22;24536;45.488;12.238;2023-10-09T09:32:11;26.30;84.50
38788;DHT22;24536;45.488;12.238;2023-10-09T09:37:19;26.50;84.30
38788;DHT22;24536;45.488;12.238;2023-10-09T09:39:46;26.60;84.20
38788;DHT22;24536;45.488;12.238;2023-10-09T09:42:18;26.80;84.00
38788;DHT22;24536;45.488;12.238;2023-10-09T09:44:51;26.80;83.90
38788;DHT22;24536;45.488;12.238;2023-10-09T09:47:16;26.90;83.40
38788;DHT22;24536;45.488;12.238;2023-10-09T09:49:50;27.00;82.90
38788;DHT22;24536;45.488;12.238;2023-10-09T09:52:18;27.10;83.10
38788;DHT22;24536;45.488;12.238;2023-10-09T09:54:44;27.20;83.20
38788;DHT22;24536;45.488;12.238;2023-10-09T09:57:13;27.30;82.30
38788;DHT22;24536;45.488;12.238;2023-10-09T09:59:41;27.30;82.80
38788;DHT22;24536;45.488;12.238;2023-10-09T10:02:27;27.30;83.20
38788;DHT22;24536;45.488;12.238;2023-10-09T10:04:56;27.50;83.10
38788;DHT22;24536;45.488;12.238;2023-10-09T10:07:23;27.60;83.10
38788;DHT22;24536;45.488;12.238;2023-10-09T10:09:50;27.70;82.70
38788;DHT22;24536;45.488;12.238;2023-10-09T10:12:49;27.70;82.20
38788;DHT22;24536;45.488;12.238;2023-10-09T10:16:04;27.80;82.00
38788;DHT22;24536;45.488;12.238;2023-10-09T10:18:59;27.80;82.20
38788;DHT22;24536;45.488;12.238;2023-10-09T10:21:37;28.00;82.00
38788;DHT22;24536;45.488;12.238;2023-10-09T10:32:54;28.40;81.70
38788;DHT22;24536;45.488;12.238;2023-10-09T10:35:23;28.50;81.10
38788;DHT22;24536;45.488;12.238;2023-10-09T10:38:02;28.60;81.10
38788;DHT22;24536;45.488;12.238;2023-10-09T10:40:37;28.70;80.80
38788;DHT22;24536;45.488;12.238;2023-10-09T10:43:20;28.80;80.30
38788;DHT22;24536;45.488;12.238;2023-10-09T10:46:14;28.70;80.30
38788;DHT22;24536;45.488;12.238;2023-10-09T10:48:42;28.80;80.80
38788;DHT22;24536;45.488;12.238;2023-10-09T10:51:13;29.00;80.80
38788;DHT22;24536;45.488;12.238;2023-10-09T10:53:53;29.10;80.40
38788;DHT22;24536;45.488;12.238;2023-10-09T10:56:25;29.20;80.60
38788;DHT22;24536;45.488;12.238;2023-10-09T10:59:04;29.20;80.30
38788;DHT22;24536;45.488;12.238;2023-10-09T11:01:33;29.30;80.00
38788;DHT22;24536;45.488;12.238;2023-10-09T11:04:19;29.30;79.60
38788;DHT22;24536;45.488;12.238;2023-10-09T11:07:11;29.20;79.90
38788;DHT22;24536;45.488;12.238;2023-10-09T11:09:56;29.30;80.20
38788;DHT22;24536;45.488;12.238;2023-10-09T11:12:51;29.40;80.30
38788;DHT22;24536;45.488;12.238;2023-10-09T11:15:17;29.50;79.70
38788;DHT22;24536;45.488;12.238;2023-10-09T11:18:04;29.60;79.70
38788;DHT22;24536;45.488;12.238;2023-10-09T11:20:37;29.80;79.50
38788;DHT22;24536;45.488;12.238;2023-10-09T11:23:04;29.90;79.00
38788;DHT22;24536;45.488;12.238;2023-10-09T11:25:43;30.00;78.70
38788;DHT22;24536;45.488;12.238;2023-10-09T11:28:22;30.10;78.40
38788;DHT22;24536;45.488;12.238;2023-10-09T11:31:12;30.20;78.50
38788;DHT22;24536;45.488;12.238;2023-10-09T11:33:47;30.30;78.10
38788;DHT22;24536;45.488;12.238;2023-10-09T11:36:23;30.30;77.70
38788;DHT22;24536;45.488;12.238;2023-10-09T11:39:01;30.40;77.50
38788;DHT22;24536;45.488;12.238;2023-10-09T11:41:44;30.50;77.30
38788;DHT22;24536;45.488;12.238;2023-10-09T11:44:11;30.70;76.80
38788;DHT22;24536;45.488;12.238;2023-10-09T11:46:58;30.80;76.40
38788;DHT22;24536;45.488;12.238;2023-10-09T11:49:50;30.90;75.60
38788;DHT22;24536;45.488;12.238;2023-10-09T11:52:25;30.90;75.60
38788;DHT22;24536;45.488;12.238;2023-10-09T11:55:01;30.90;75.70
38788;DHT22;24536;45.488;12.238;2023-10-09T11:57:28;30.90;75.20
38788;DHT22;24536;45.488;12.238;2023-10-09T12:00:03;31.00;75.10
38788;DHT22;24536;45.488;12.238;2023-10-09T12:02:52;31.10;75.00
38788;DHT22;24536;45.488;12.238;2023-10-09T12:05:18;31.10;75.20
38788;DHT22;24536;45.488;12.238;2023-10-09T12:07:48;31.20;75.00
38788;DHT22;24536;45.488;12.238;2023-10-09T12:10:21;31.30;74.80
38788;DHT22;24536;45.488;12.238;2023-10-09T12:12:52;31.20;74.50
38788;DHT22;24536;45.488;12.238;2023-10-09T12:15:18;31.20;74.90
38788;DHT22;24536;45.488;12.238;2023-10-09T12:17:45;31.20;74.80
38788;DHT22;24536;45.488;12.238;2023-10-09T12:20:16;31.20;74.80
38788;DHT22;24536;45.488;12.238;2023-10-09T12:23:02;31.20;75.00
38788;DHT22;24536;45.488;12.238;2023-10-09T12:25:31;31.30;74.80
38788;DHT22;24536;45.488;12.238;2023-10-09T12:28:01;31.30;75.10
38788;DHT22;24536;45.488;12.238;2023-10-09T12:30:32;31.20;74.40
38788;DHT22;24536;45.488;12.238;2023-10-09T12:33:05;31.20;74.30
38788;DHT22;24536;45.488;12.238;2023-10-09T12:35:37;31.20;74.00
38788;DHT22;24536;45.488;12.238;2023-10-09T12:38:04;31.10;74.20
38788;DHT22;24536;45.488;12.238;2023-10-09T12:40:35;31.10;74.30
38788;DHT22;24536;45.488;12.238;2023-10-09T12:43:01;31.00;74.60
38788;DHT22;24536;45.488;12.238;2023-10-09T12:45:27;30.90;74.90
38788;DHT22;24536;45.488;12.238;2023-10-09T12:47:56;30.90;75.10
38788;DHT22;24536;45.488;12.238;2023-10-09T12:50:28;30.90;75.10
38788;DHT22;24536;45.488;12.238;2023-10-09T12:52:57;30.80;74.70
38788;DHT22;24536;45.488;12.238;2023-10-09T12:55:38;30.70;74.80
38788;DHT22;24536;45.488;12.238;2023-10-09T12:58:08;30.70;74.60
38788;DHT22;24536;45.488;12.238;2023-10-09T13:00:38;30.50;74.80
38788;DHT22;24536;45.488;12.238;2023-10-09T13:03:10;30.30;74.80
38788;DHT22;24536;45.488;12.238;2023-10-09T13:05:49;30.20;75.50
38788;DHT22;24536;45.488;12.238;2023-10-09T13:08:25;30.00;75.80
38788;DHT22;24536;45.488;12.238;2023-10-09T13:11:01;29.80;76.20
38788;DHT22;24536;45.488;12.238;2023-10-09T13:13:38;29.60;76.40
38788;DHT22;24536;45.488;12.238;2023-10-09T13:16:15;29.50;76.80
38788;DHT22;24536;45.488;12.238;2023-10-09T13:18:50;29.40;76.70
38788;DHT22;24536;45.488;12.238;2023-10-09T13:21:27;29.20;77.10
38788;DHT22;24536;45.488;12.238;2023-10-09T13:23:57;29.10;77.80
38788;DHT22;24536;45.488;12.238;2023-10-09T13:26:23;28.90;77.90
38788;DHT22;24536;45.488;12.238;2023-10-09T13:28:57;28.80;77.90
38788;DHT22;24536;45.488;12.238;2023-10-09T13:31:24;28.70;78.20
38788;DHT22;24536;45.488;12.238;2023-10-09T13:33:54;28.60;78.70
38788;DHT22;24536;45.488;12.238;2023-10-09T13:36:21;28.50;79.50
38788;DHT22;24536;45.488;12.238;2023-10-09T13:39:08;28.40;79.70
38788;DHT22;24536;45.488;12.238;2023-10-09T13:41:55;28.30;80.00
38788;DHT22;24536;45.488;12.238;2023-10-09T13:44:30;28.30;79.60
38788;DHT22;24536;45.488;12.238;2023-10-09T13:47:01;28.20;79.90
38788;DHT22;24536;45.488;12.238;2023-10-09T13:49:32;28.10;80.40
38788;DHT22;24536;45.488;12.238;2023-10-09T13:52:02;28.00;80.30
38788;DHT22;24536;45.488;12.238;2023-10-09T13:54:28;28.00;80.80
38788;DHT22;24536;45.488;12.238;2023-10-09T13:57:05;27.90;81.10
38788;DHT22;24536;45.488;12.238;2023-10-09T13:59:34;27.80;81.10
38788;DHT22;24536;45.488;12.238;2023-10-09T14:02:08;27.80;81.30
38788;DHT22;24536;45.488;12.238;2023-10-09T14:04:35;27.70;81.30
38788;DHT22;24536;45.488;12.238;2023-10-09T14:07:00;27.80;81.40
38788;DHT22;24536;45.488;12.238;2023-10-09T14:09:31;27.70;81.50
38788;DHT22;24536;45.488;12.238;2023-10-09T14:11:58;27.60;81.70
38788;DHT22;24536;45.488;12.238;2023-10-09T14:14:42;27.60;82.10
38788;DHT22;24536;45.488;12.238;2023-10-09T14:17:21;27.50;82.50
38788;DHT22;24536;45.488;12.238;2023-10-09T14:19:55;27.50;82.70
38788;DHT22;24536;45.488;12.238;2023-10-09T14:22:26;27.40;82.90
38788;DHT22;24536;45.488;12.238;2023-10-09T14:24:53;27.40;83.00
38788;DHT22;24536;45.488;12.238;2023-10-09T14:27:26;27.30;83.10
38788;DHT22;24536;45.488;12.238;2023-10-09T14:29:53;27.30;83.40
38788;DHT22;24536;45.488;12.238;2023-10-09T14:32:25;27.30;83.70
38788;DHT22;24536;45.488;12.238;2023-10-09T14:35:09;27.20;84.10
38788;DHT22;24536;45.488;12.238;2023-10-09T14:37:41;27.20;84.30
38788;DHT22;24536;45.488;12.238;2023-10-09T14:40:07;27.20;84.40
38788;DHT22;24536;45.488;12.238;2023-10-09T14:42:41;27.10;84.30
38788;DHT22;24536;45.488;12.238;2023-10-09T14:45:13;27.10;84.30
38788;DHT22;24536;45.488;12.238;2023-10-09T14:47:44;27.10;84.40
38788;DHT22;24536;45.488;12.238;2023-10-09T14:50:13;27.00;84.40
38788;DHT22;24536;45.488;12.238;2023-10-09T14:52:40;27.00;84.50
38788;DHT22;24536;45.488;12.238;2023-10-09T14:55:06;27.00;84.50
38788;DHT22;24536;45.488;12.238;2023-10-09T14:57:32;26.90;84.70
38788;DHT22;24536;45.488;12.238;2023-10-09T15:00:02;26.90;85.30
38788;DHT22;24536;45.488;12.238;2023-10-09T15:02:39;26.90;84.80
38788;DHT22;24536;45.488;12.238;2023-10-09T15:05:05;26.80;84.90
38788;DHT22;24536;45.488;12.238;2023-10-09T15:07:35;26.80;85.00
38788;DHT22;24536;45.488;12.238;2023-10-09T15:10:05;26.80;84.90
38788;DHT22;24536;45.488;12.238;2023-10-09T15:12:31;26.80;85.00
38788;DHT22;24536;45.488;12.238;2023-10-09T15:14:56;26.70;85.10
38788;DHT22;24536;45.488;12.238;2023-10-09T15:17:23;26.70;85.10
38788;DHT22;24536;45.488;12.238;2023-10-09T15:19:50;26.70;85.20
38788;DHT22;24536;45.488;12.238;2023-10-09T15:22:22;26.70;85.40
38788;DHT22;24536;45.488;12.238;2023-10-09T15:24:47;26.70;85.60
38788;DHT22;24536;45.488;12.238;2023-10-09T15:27:14;26.70;85.70
38788;DHT22;24536;45.488;12.238;2023-10-09T15:29:41;26.70;85.70
38788;DHT22;24536;45.488;12.238;2023-10-09T15:32:09;26.60;85.90
38788;DHT22;24536;45.488;12.238;2023-10-09T15:34:41;26.60;86.20
38788;DHT22;24536;45.488;12.238;2023-10-09T15:37:07;26.60;86.50
38788;DHT22;24536;45.488;12.238;2023-10-09T15:39:37;26.50;86.80
38788;DHT22;24536;45.488;12.238;2023-10-09T15:42:03;26.50;87.10
38788;DHT22;24536;45.488;12.238;2023-10-09T15:44:32;26.40;87.50
38788;DHT22;24536;45.488;12.238;2023-10-09T15:47:05;26.40;87.70
38788;DHT22;24536;45.488;12.238;2023-10-09T15:49:34;26.40;88.00
38788;DHT22;24536;45.488;12.238;2023-10-09T15:52:03;26.30;88.10
38788;DHT22;24536;45.488;12.238;2023-10-09T15:54:28;26.30;88.30
38788;DHT22;24536;45.488;12.238;2023-10-09T15:56:55;26.30;88.70
38788;DHT22;24536;45.488;12.238;2023-10-09T15:59:22;26.20;88.90
38788;DHT22;24536;45.488;12.238;2023-10-09T16:01:49;26.20;89.10
38788;DHT22;24536;45.488;12.238;2023-10-09T16:04:17;26.10;89.30
38788;DHT22;24536;45.488;12.238;2023-10-09T16:06:43;26.10;89.60
38788;DHT22;24536;45.488;12.238;2023-10-09T16:09:08;26.10;89.80
38788;DHT22;24536;45.488;12.238;2023-10-09T16:11:40;26.10;90.00